Time;durP1;ratioP1;P1;durP2;ratioP2;P2;SDS_P1;SDS_P2;PMS_P1;PMS_P2;Temp;Humidity;BMP_temperature;BMP_pressure;BME280_temperature;BME280_humidity;BME280_pressure;Samples;Min_cycle;Max_cycle;Signal;HPM_P1;HPM_P2
2021/04/18 00:01:25;;;;;;;1.83;0.63;;;10.00;62.80;;;;;;5059092;28;20182;-47
2021/04/18 00:03:51;;;;;;;3.10;0.60;;;10.00;61.40;;;;;;5055779;28;20193;-48
2021/04/18 00:06:17;;;;;;;2.40;0.70;;;10.00;60.80;;;;;;5071362;28;20178;-48
2021/04/18 00:08:44;;;;;;;1.13;0.60;;;10.00;61.10;;;;;;5063441;28;20627;-49
2021/04/18 00:11:11;;;;;;;2.13;0.63;;;9.90;61.60;;;;;;5076699;28;20209;-50
2021/04/18 00:13:37;;;;;;;1.35;0.55;;;10.00;60.20;;;;;;5072624;28;20638;-49
2021/04/18 00:16:04;;;;;;;1.15;0.57;;;9.90;60.00;;;;;;5071064;28;20204;-48
2021/04/18 00:18:30;;;;;;;1.75;0.70;;;9.90;60.80;;;;;;5053228;28;20525;-47
2021/04/18 00:20:56;;;;;;;1.30;0.60;;;9.90;59.50;;;;;;5066131;28;20657;-48
2021/04/18 00:23:22;;;;;;;2.00;0.77;;;9.90;59.20;;;;;;5070504;28;20638;-49
2021/04/18 00:25:49;;;;;;;3.28;0.80;;;9.90;59.10;;;;;;5059869;28;20182;-48
2021/04/18 00:28:15;;;;;;;3.42;0.80;;;9.80;58.90;;;;;;5052750;28;20530;-47
2021/04/18 00:30:41;;;;;;;2.78;0.50;;;9.80;59.50;;;;;;5054100;28;20238;-48
2021/04/18 00:33:07;;;;;;;1.98;0.85;;;9.80;58.30;;;;;;5055585;28;20544;-49
2021/04/18 00:35:33;;;;;;;2.40;0.60;;;9.70;58.70;;;;;;5062492;28;20187;-48
2021/04/18 00:37:59;;;;;;;9.43;0.75;;;9.70;58.90;;;;;;5071096;28;20178;-49
2021/04/18 00:40:26;;;;;;;0.77;0.50;;;9.60;59.90;;;;;;5070585;28;20174;-50
2021/04/18 00:42:52;;;;;;;3.88;1.00;;;9.60;59.60;;;;;;5071088;28;20177;-48
2021/04/18 00:45:19;;;;;;;5.47;0.63;;;9.50;58.70;;;;;;5055519;28;20185;-48
2021/04/18 00:47:47;;;;;;;1.75;0.75;;;9.50;59.10;;;;;;5072027;28;20178;-48
2021/04/18 00:50:17;;;;;;;1.13;0.32;;;9.50;58.70;;;;;;5070267;28;20213;-48
2021/04/18 00:52:43;;;;;;;1.23;0.70;;;9.50;58.50;;;;;;5071909;28;20170;-48
2021/04/18 00:55:10;;;;;;;1.38;0.68;;;9.50;58.20;;;;;;5060807;28;20190;-47
2021/04/18 00:57:36;;;;;;;0.75;0.43;;;9.40;59.80;;;;;;5058181;28;20662;-48
2021/04/18 01:00:05;;;;;;;1.52;0.55;;;9.40;58.80;;;;;;5063060;28;20185;-48
2021/04/18 01:02:31;;;;;;;7.88;0.93;;;9.30;60.10;;;;;;5070490;28;20174;-50
2021/04/18 01:04:57;;;;;;;1.20;0.60;;;9.20;59.50;;;;;;5062867;28;20572;-51
2021/04/18 01:07:23;;;;;;;1.20;0.68;;;9.10;60.20;;;;;;5053178;28;20179;-48
2021/04/18 01:09:49;;;;;;;1.58;0.80;;;9.00;61.00;;;;;;5060240;28;20214;-48
2021/04/18 01:12:16;;;;;;;4.72;0.68;;;8.90;59.20;;;;;;5052779;28;20182;-48
2021/04/18 01:14:42;;;;;;;1.60;0.80;;;8.90;59.40;;;;;;5054416;28;20189;-51
2021/04/18 01:17:08;;;;;;;0.85;0.50;;;8.80;60.00;;;;;;5059603;28;20180;-50
2021/04/18 01:19:34;;;;;;;1.52;0.90;;;8.70;60.00;;;;;;5069121;28;20192;-49
2021/04/18 01:22:00;;;;;;;1.38;0.70;;;8.60;60.10;;;;;;5057552;28;20642;-47
2021/04/18 01:24:27;;;;;;;6.90;0.77;;;8.60;61.50;;;;;;5071008;28;20193;-48
2021/04/18 01:26:53;;;;;;;1.60;0.70;;;8.50;61.70;;;;;;5063384;28;20176;-48
2021/04/18 01:29:19;;;;;;;1.25;0.50;;;8.50;62.00;;;;;;5071271;28;20174;-48
2021/04/18 01:31:45;;;;;;;2.42;0.82;;;8.40;61.90;;;;;;5069749;28;20193;-48
2021/04/18 01:34:15;;;;;;;3.92;0.90;;;8.30;61.30;;;;;;5068677;28;20169;-47
2021/04/18 01:36:44;;;;;;;1.00;0.60;;;8.30;63.00;;;;;;5074164;28;20193;-48
2021/04/18 01:39:12;;;;;;;1.55;0.80;;;8.30;63.20;;;;;;5062402;28;20546;-48
2021/04/18 01:41:38;;;;;;;2.25;0.90;;;8.20;63.40;;;;;;5056082;28;20175;-48
2021/04/18 01:44:05;;;;;;;2.72;0.75;;;8.10;62.60;;;;;;5065435;28;20201;-48
2021/04/18 01:46:32;;;;;;;3.45;0.88;;;8.10;63.20;;;;;;5066667;28;20203;-47
2021/04/18 01:48:58;;;;;;;4.18;0.60;;;8.10;63.80;;;;;;5060472;28;20203;-48
2021/04/18 01:51:25;;;;;;;1.63;0.80;;;8.10;64.80;;;;;;5056966;28;20236;-47
2021/04/18 01:53:51;;;;;;;5.80;1.00;;;8.10;64.90;;;;;;5056957;28;20178;-48
2021/04/18 01:56:17;;;;;;;5.25;0.77;;;8.00;64.60;;;;;;5070719;28;20182;-48
2021/04/18 01:58:43;;;;;;;3.35;1.00;;;8.00;64.50;;;;;;5074765;28;20170;-48
2021/04/18 02:01:10;;;;;;;2.90;1.15;;;7.90;66.20;;;;;;5067574;28;20182;-47
2021/04/18 02:03:36;;;;;;;3.38;0.68;;;8.00;65.30;;;;;;5073746;28;20166;-48
2021/04/18 02:06:02;;;;;;;0.75;0.45;;;8.00;64.80;;;;;;5074420;28;20181;-48
2021/04/18 02:08:28;;;;;;;2.38;0.70;;;8.00;64.70;;;;;;5074449;28;20165;-47
2021/04/18 02:10:55;;;;;;;2.47;0.90;;;8.00;64.80;;;;;;5074938;28;20213;-48
2021/04/18 02:13:21;;;;;;;2.10;0.88;;;8.00;65.30;;;;;;5063609;28;20185;-47
2021/04/18 02:15:47;;;;;;;1.58;0.70;;;7.90;65.10;;;;;;5074811;28;20178;-47
2021/04/18 02:18:13;;;;;;;2.22;0.73;;;7.90;65.10;;;;;;5074312;28;20174;-49
2021/04/18 02:20:39;;;;;;;1.55;0.90;;;7.80;66.30;;;;;;5073058;28;20190;-49
2021/04/18 02:23:05;;;;;;;4.03;0.80;;;7.80;65.90;;;;;;5064061;28;20183;-48
2021/04/18 02:25:31;;;;;;;3.05;0.80;;;7.70;67.40;;;;;;5069181;28;20526;-48
2021/04/18 02:27:58;;;;;;;1.77;0.93;;;7.50;68.50;;;;;;5063482;28;20603;-47
2021/04/18 02:30:24;;;;;;;1.67;0.80;;;7.40;69.30;;;;;;5054843;28;20210;-47
2021/04/18 02:32:50;;;;;;;1.38;0.80;;;7.40;69.60;;;;;;5055059;28;20228;-48
2021/04/18 02:35:17;;;;;;;1.90;0.90;;;7.30;70.40;;;;;;5067488;28;20184;-48
2021/04/18 02:37:45;;;;;;;3.78;1.00;;;7.20;70.90;;;;;;5074677;28;20665;-47
2021/04/18 02:40:12;;;;;;;3.15;1.15;;;7.10;72.40;;;;;;5063520;28;20194;-47
2021/04/18 02:42:40;;;;;;;1.92;0.85;;;7.10;71.20;;;;;;5055526;28;20187;-48
2021/04/18 02:45:08;;;;;;;2.85;1.00;;;7.00;71.70;;;;;;5054188;28;20178;-48
2021/04/18 02:47:34;;;;;;;5.82;0.85;;;7.00;74.00;;;;;;5058360;28;20170;-48
2021/04/18 02:50:00;;;;;;;1.85;0.93;;;6.90;75.80;;;;;;5057484;28;20229;-48
2021/04/18 02:52:26;;;;;;;6.05;0.95;;;6.90;75.90;;;;;;5056168;28;20181;-48
2021/04/18 02:54:53;;;;;;;2.10;0.70;;;6.80;77.30;;;;;;5074095;28;20201;-51
2021/04/18 02:57:19;;;;;;;1.77;0.80;;;6.70;77.70;;;;;;5066861;28;20174;-48
2021/04/18 02:59:45;;;;;;;5.68;1.02;;;6.70;77.40;;;;;;5071038;28;20181;-48
2021/04/18 03:02:11;;;;;;;3.08;0.80;;;6.70;78.00;;;;;;5073801;28;20170;-47
2021/04/18 03:04:37;;;;;;;3.28;0.65;;;6.60;78.70;;;;;;5067206;28;20182;-49
2021/04/18 03:07:03;;;;;;;2.05;0.73;;;6.60;79.50;;;;;;5055267;28;20201;-48
2021/04/18 03:09:29;;;;;;;2.38;1.00;;;6.50;80.50;;;;;;5054256;28;20186;-47
2021/04/18 03:11:56;;;;;;;3.42;1.05;;;6.50;81.10;;;;;;5055452;28;20563;-48
2021/04/18 03:14:22;;;;;;;4.05;0.98;;;6.50;82.30;;;;;;5061936;28;20642;-50
2021/04/18 03:16:48;;;;;;;2.38;0.98;;;6.40;83.00;;;;;;5072141;28;20170;-48
2021/04/18 03:19:14;;;;;;;5.15;0.80;;;6.40;81.40;;;;;;5072450;28;20162;-48
2021/04/18 03:21:40;;;;;;;3.92;1.00;;;6.40;80.90;;;;;;5068441;28;20175;-48
2021/04/18 03:24:07;;;;;;;2.80;1.00;;;6.40;82.90;;;;;;5065823;28;20177;-47
2021/04/18 03:26:33;;;;;;;2.65;0.90;;;6.40;84.10;;;;;;5064667;28;20570;-49
2021/04/18 03:28:59;;;;;;;3.05;1.00;;;6.40;83.10;;;;;;5054249;28;20187;-48
2021/04/18 03:31:25;;;;;;;4.28;1.10;;;6.40;84.70;;;;;;5062949;28;20209;-48
2021/04/18 03:33:52;;;;;;;1.52;0.82;;;6.30;86.20;;;;;;5073471;28;20206;-48
2021/04/18 03:36:18;;;;;;;5.03;0.98;;;6.30;87.20;;;;;;5072754;28;20185;-47
2021/04/18 03:38:44;;;;;;;2.92;0.90;;;6.20;88.00;;;;;;5071832;28;20170;-48
2021/04/18 03:41:10;;;;;;;2.40;1.08;;;6.20;87.30;;;;;;5066898;28;20631;-47
2021/04/18 03:43:36;;;;;;;2.72;0.85;;;6.20;89.80;;;;;;5061990;28;20201;-48
2021/04/18 03:46:02;;;;;;;3.35;0.85;;;6.30;88.10;;;;;;5056319;28;20187;-49
2021/04/18 03:48:29;;;;;;;3.33;0.90;;;6.30;88.10;;;;;;5061573;28;20202;-48
2021/04/18 03:50:55;;;;;;;1.38;0.82;;;6.20;90.80;;;;;;5053558;28;20210;-47
2021/04/18 03:53:21;;;;;;;3.30;1.00;;;6.20;90.80;;;;;;5071863;28;20174;-47
2021/04/18 03:55:47;;;;;;;1.75;0.75;;;6.10;91.10;;;;;;5059515;28;20533;-47
2021/04/18 03:58:13;;;;;;;2.58;0.98;;;6.10;90.60;;;;;;5068895;28;20513;-47
2021/04/18 04:00:39;;;;;;;2.83;0.90;;;6.10;91.30;;;;;;5053765;28;20178;-47
2021/04/18 04:03:06;;;;;;;2.80;1.10;;;6.10;91.00;;;;;;5061127;28;20614;-46
2021/04/18 04:05:32;;;;;;;1.25;0.77;;;6.10;90.60;;;;;;5069525;28;20646;-48
2021/04/18 04:07:59;;;;;;;1.25;0.80;;;6.10;89.60;;;;;;5053451;28;20182;-47
2021/04/18 04:10:25;;;;;;;1.58;0.60;;;6.10;90.20;;;;;;5058363;28;20222;-48
2021/04/18 04:12:52;;;;;;;2.97;0.80;;;6.20;89.60;;;;;;5060250;28;20174;-48
2021/04/18 04:15:18;;;;;;;2.50;0.98;;;6.20;89.80;;;;;;5071540;28;20178;-47
2021/04/18 04:17:44;;;;;;;4.15;1.20;;;6.20;89.90;;;;;;5067680;28;20183;-47
2021/04/18 04:20:11;;;;;;;2.75;0.90;;;6.20;89.90;;;;;;5060525;28;20646;-47
2021/04/18 04:22:37;;;;;;;1.77;0.80;;;6.20;88.80;;;;;;5068094;28;20178;-50
2021/04/18 04:25:04;;;;;;;3.78;0.75;;;6.30;88.30;;;;;;5053850;28;20178;-48
2021/04/18 04:27:30;;;;;;;1.77;0.90;;;6.30;89.30;;;;;;5052822;28;20548;-47
2021/04/18 04:29:56;;;;;;;2.38;0.90;;;6.30;89.80;;;;;;5052895;28;20540;-49
2021/04/18 04:32:22;;;;;;;3.97;0.93;;;6.40;89.50;;;;;;5061169;28;20248;-48
2021/04/18 04:34:49;;;;;;;2.53;0.63;;;6.30;87.10;;;;;;5069096;28;20178;-48
2021/04/18 04:37:15;;;;;;;3.05;0.90;;;6.40;89.80;;;;;;5059238;28;20656;-48
2021/04/18 04:39:41;;;;;;;3.00;0.80;;;6.40;90.20;;;;;;5053975;28;20178;-48
2021/04/18 04:42:07;;;;;;;3.72;1.23;;;6.30;89.60;;;;;;5053826;28;20178;-48
2021/04/18 04:44:34;;;;;;;1.25;0.70;;;6.50;86.40;;;;;;5057778;28;20171;-49
2021/04/18 04:47:00;;;;;;;7.00;0.80;;;6.50;90.00;;;;;;5068261;28;20170;-49
2021/04/18 04:49:26;;;;;;;3.75;0.80;;;6.50;88.60;;;;;;5053664;28;20212;-50
2021/04/18 04:51:52;;;;;;;1.63;0.80;;;6.50;87.40;;;;;;5052862;28;20210;-50
2021/04/18 04:54:18;;;;;;;1.95;0.70;;;6.60;89.00;;;;;;5060490;28;20186;-48
2021/04/18 04:56:44;;;;;;;2.15;0.82;;;6.60;88.30;;;;;;5062860;28;20654;-47
2021/04/18 04:59:10;;;;;;;4.63;0.93;;;6.70;86.40;;;;;;5067442;28;20204;-51
2021/04/18 05:01:37;;;;;;;2.67;0.73;;;6.70;88.90;;;;;;5056526;28;20175;-48
2021/04/18 05:04:03;;;;;;;2.17;0.80;;;6.70;86.40;;;;;;5066470;28;20196;-49
2021/04/18 05:06:30;;;;;;;1.30;0.80;;;6.80;87.90;;;;;;5070649;28;20638;-50
2021/04/18 05:08:56;;;;;;;4.10;0.80;;;6.80;86.00;;;;;;5053310;28;20187;-48
2021/04/18 05:11:22;;;;;;;4.50;1.05;;;6.90;86.90;;;;;;5053368;28;20205;-49
2021/04/18 05:13:48;;;;;;;3.58;0.75;;;6.90;86.40;;;;;;5060672;28;20174;-49
2021/04/18 05:16:15;;;;;;;1.63;0.70;;;7.00;87.30;;;;;;5051736;28;20607;-50
2021/04/18 05:18:43;;;;;;;4.03;0.80;;;7.00;83.70;;;;;;5053445;28;20194;-49
2021/04/18 05:21:11;;;;;;;2.28;0.80;;;7.10;83.50;;;;;;5052073;28;20194;-50
2021/04/18 05:23:37;;;;;;;2.58;0.70;;;7.10;82.00;;;;;;5064613;28;20244;-49
2021/04/18 05:26:03;;;;;;;3.85;0.65;;;7.20;82.50;;;;;;5071581;28;20533;-51
2021/04/18 05:28:29;;;;;;;1.83;0.88;;;7.30;83.70;;;;;;5065062;28;20179;-49
2021/04/18 05:30:57;;;;;;;3.55;0.70;;;7.30;82.60;;;;;;5059853;28;20217;-48
2021/04/18 05:33:24;;;;;;;1.70;0.60;;;7.30;83.70;;;;;;5067923;28;20218;-48
2021/04/18 05:35:50;;;;;;;2.53;0.80;;;7.40;84.40;;;;;;5065265;28;20209;-48
2021/04/18 05:38:16;;;;;;;4.82;1.17;;;7.50;81.70;;;;;;5051373;28;20182;-47
2021/04/18 05:40:43;;;;;;;0.77;0.40;;;7.60;82.60;;;;;;5060358;28;20178;-48
2021/04/18 05:43:10;;;;;;;1.80;0.70;;;7.60;81.50;;;;;;5065881;28;20549;-47
2021/04/18 05:45:36;;;;;;;3.38;0.77;;;7.70;81.30;;;;;;5053417;28;20182;-47
2021/04/18 05:48:02;;;;;;;2.63;0.80;;;7.70;80.10;;;;;;5054907;28;20201;-47
2021/04/18 05:50:28;;;;;;;1.92;0.82;;;7.70;78.90;;;;;;5060941;28;20211;-48
2021/04/18 05:52:54;;;;;;;2.97;0.70;;;7.80;80.00;;;;;;5058035;28;20190;-47
2021/04/18 05:55:20;;;;;;;1.88;0.70;;;7.80;80.40;;;;;;5065305;28;20226;-48
2021/04/18 05:57:47;;;;;;;5.15;0.75;;;8.00;79.20;;;;;;5055632;28;20179;-47
2021/04/18 06:00:13;;;;;;;1.95;1.05;;;8.10;79.90;;;;;;5067747;28;20182;-48
2021/04/18 06:02:39;;;;;;;1.67;0.40;;;8.10;78.60;;;;;;5069756;28;20175;-47
2021/04/18 06:05:06;;;;;;;1.42;0.68;;;8.20;77.60;;;;;;5053550;28;20171;-47
2021/04/18 06:07:32;;;;;;;3.05;0.90;;;8.20;79.30;;;;;;5068041;28;20328;-47
2021/04/18 06:09:58;;;;;;;2.85;0.82;;;8.30;77.40;;;;;;5051885;28;20650;-47
2021/04/18 06:12:24;;;;;;;1.60;0.70;;;8.30;76.60;;;;;;5052609;28;20207;-47
2021/04/18 06:14:52;;;;;;;1.42;0.70;;;8.30;76.40;;;;;;5070567;28;20190;-47
2021/04/18 06:17:18;;;;;;;1.20;0.60;;;8.40;77.10;;;;;;5058070;28;20193;-47
2021/04/18 06:19:44;;;;;;;1.17;0.73;;;8.50;76.60;;;;;;5063492;28;20666;-47
2021/04/18 06:22:10;;;;;;;1.67;0.80;;;8.60;76.80;;;;;;5069724;28;20536;-47
2021/04/18 06:24:37;;;;;;;2.63;0.60;;;8.60;75.60;;;;;;5068618;28;20182;-48
2021/04/18 06:27:03;;;;;;;2.05;0.77;;;8.70;76.00;;;;;;5075328;28;20186;-47
2021/04/18 06:29:29;;;;;;;2.67;0.65;;;8.80;77.00;;;;;;5069594;28;20174;-49
2021/04/18 06:31:55;;;;;;;1.00;0.60;;;8.90;74.20;;;;;;5063020;28;20210;-48
2021/04/18 06:34:23;;;;;;;2.05;0.80;;;9.00;75.30;;;;;;5073368;28;20186;-49
2021/04/18 06:36:50;;;;;;;2.38;0.90;;;9.00;74.30;;;;;;5071524;28;20193;-46
2021/04/18 06:39:16;;;;;;;3.97;1.10;;;9.00;75.20;;;;;;5059309;28;20167;-50
2021/04/18 06:41:42;;;;;;;1.42;0.70;;;9.20;75.80;;;;;;5066129;28;20185;-46
2021/04/18 06:44:08;;;;;;;3.10;0.65;;;9.40;74.40;;;;;;5071871;28;20523;-48
2021/04/18 06:46:34;;;;;;;3.78;0.82;;;9.50;75.50;;;;;;5070933;28;20706;-49
2021/04/18 06:49:00;;;;;;;4.20;0.80;;;9.60;74.00;;;;;;5072428;28;20190;-51
2021/04/18 06:51:27;;;;;;;4.80;1.00;;;9.80;75.50;;;;;;5072191;28;20233;-48
2021/04/18 06:53:53;;;;;;;5.55;0.77;;;9.70;73.00;;;;;;5056749;28;20186;-51
2021/04/18 06:56:19;;;;;;;3.28;1.00;;;9.60;73.60;;;;;;5056271;28;20175;-48
2021/04/18 06:58:45;;;;;;;2.53;0.80;;;9.70;74.80;;;;;;5056953;28;20176;-50
2021/04/18 07:01:11;;;;;;;1.95;0.85;;;9.80;72.80;;;;;;5068643;28;20194;-49
2021/04/18 07:03:38;;;;;;;1.55;0.90;;;10.00;73.20;;;;;;5076288;28;20177;-48
2021/04/18 07:06:04;;;;;;;5.60;0.90;;;10.10;73.00;;;;;;5061243;28;20213;-48
2021/04/18 07:08:32;;;;;;;2.50;1.00;;;10.40;72.20;;;;;;5077108;28;20171;-47
2021/04/18 07:11:15;;;;;;;2.03;0.80;;;10.50;72.00;;;;;;5060780;28;20221;-48
2021/04/18 07:13:42;;;;;;;2.40;0.75;;;10.60;70.00;;;;;;5054418;28;20182;-49
2021/04/18 07:16:24;;;;;;;2.92;1.40;;;10.90;71.40;;;;;;5058288;28;20193;-47
2021/04/18 07:18:51;;;;;;;4.32;1.10;;;10.70;69.70;;;;;;5053523;28;20662;-48
2021/04/18 07:21:17;;;;;;;2.03;0.95;;;10.80;69.50;;;;;;5062408;28;20181;-49
2021/04/18 07:23:43;;;;;;;2.65;0.98;;;10.90;70.00;;;;;;5059162;28;20198;-48
2021/04/18 07:26:36;;;;;;;6.68;0.77;;;11.10;69.50;;;;;;5070347;28;20639;-48
2021/04/18 07:29:15;;;;;;;3.97;0.70;;;11.20;69.30;;;;;;5054338;28;20189;-47
2021/04/18 07:31:42;;;;;;;6.43;0.90;;;11.30;69.50;;;;;;5065196;28;20210;-47
2021/04/18 07:34:12;;;;;;;2.70;0.95;;;11.50;67.10;;;;;;5054112;28;20190;-48
2021/04/18 07:36:43;;;;;;;2.13;0.73;;;11.60;68.60;;;;;;5060087;28;20193;-48
2021/04/18 07:39:10;;;;;;;3.78;1.17;;;11.80;67.40;;;;;;5052592;28;20166;-47
2021/04/18 07:41:44;;;;;;;2.53;0.80;;;12.00;67.50;;;;;;5082510;28;20173;-48
2021/04/18 07:44:17;;;;;;;1.48;0.90;;;12.10;67.90;;;;;;5055955;28;20195;-48
2021/04/18 07:46:48;;;;;;;7.53;0.85;;;12.40;66.90;;;;;;5056392;28;20181;-50
2021/04/18 07:49:15;;;;;;;1.65;0.80;;;12.60;66.90;;;;;;5064927;28;20191;-47
2021/04/18 07:51:45;;;;;;;3.30;1.10;;;12.60;64.60;;;;;;5057306;28;20218;-50
2021/04/18 07:54:13;;;;;;;5.00;1.20;;;12.70;66.90;;;;;;5054489;28;20171;-48
2021/04/18 07:56:43;;;;;;;2.47;1.33;;;13.10;66.20;;;;;;5052373;28;20183;-49
2021/04/18 07:59:10;;;;;;;3.00;0.85;;;13.30;64.80;;;;;;5057693;28;20658;-49
2021/04/18 08:01:36;;;;;;;6.90;0.80;;;13.60;63.20;;;;;;5053028;28;20641;-48
2021/04/18 08:04:02;;;;;;;1.52;0.77;;;14.00;64.10;;;;;;5058814;28;20654;-50
2021/04/18 08:06:28;;;;;;;2.38;1.05;;;14.40;62.60;;;;;;5044651;28;20183;-51
2021/04/18 08:08:54;;;;;;;4.75;1.30;;;15.00;60.80;;;;;;5064119;28;20185;-47
2021/04/18 08:11:22;;;;;;;1.45;1.02;;;15.30;60.40;;;;;;5065949;28;20222;-48
2021/04/18 08:13:52;;;;;;;4.18;1.10;;;15.80;61.00;;;;;;5069605;28;20194;-48
2021/04/18 08:16:29;;;;;;;2.45;0.95;;;16.40;58.70;;;;;;5059963;28;20167;-49
2021/04/18 08:19:05;;;;;;;9.38;1.30;;;16.60;57.80;;;;;;5061936;28;20174;-50
2021/04/18 08:21:37;;;;;;;1.83;0.93;;;17.00;57.30;;;;;;5067851;28;20536;-48
2021/04/18 08:24:07;;;;;;;3.60;1.33;;;16.90;56.50;;;;;;5061450;28;20183;-51
2021/04/18 08:26:35;;;;;;;2.10;1.05;;;17.40;56.10;;;;;;5054091;28;20186;-52
2021/04/18 08:29:04;;;;;;;2.28;0.75;;;17.60;55.70;;;;;;5068068;28;20173;-52
2021/04/18 08:31:57;;;;;;;2.28;1.10;;;17.70;54.70;;;;;;5071706;28;20206;-50
2021/04/18 08:34:31;;;;;;;7.07;1.35;;;17.70;56.30;;;;;;5069148;28;20205;-50
2021/04/18 08:36:58;;;;;;;2.85;1.20;;;18.00;54.50;;;;;;5059980;28;20622;-48
2021/04/18 08:39:32;;;;;;;1.45;1.02;;;18.30;55.30;;;;;;5060555;28;20182;-50
2021/04/18 08:41:59;;;;;;;5.28;1.20;;;18.50;55.40;;;;;;5085820;28;20186;-50
2021/04/18 08:44:39;;;;;;;3.85;1.08;;;18.80;54.60;;;;;;5059583;28;20162;-48
2021/04/18 08:47:11;;;;;;;4.25;1.10;;;18.90;54.60;;;;;;5059907;28;20177;-51
2021/04/18 08:49:43;;;;;;;2.28;1.00;;;19.00;53.40;;;;;;5052747;28;20212;-51
2021/04/18 08:52:14;;;;;;;3.72;1.00;;;18.50;52.70;;;;;;5067210;28;20678;-52
2021/04/18 08:54:42;;;;;;;12.70;1.23;;;18.30;52.30;;;;;;5069972;28;20186;-51
2021/04/18 08:57:11;;;;;;;2.45;1.10;;;18.70;54.60;;;;;;5053966;28;20175;-50
2021/04/18 08:59:38;;;;;;;3.53;0.98;;;19.10;53.80;;;;;;5052346;28;20249;-48
2021/04/18 09:02:10;;;;;;;1015.92;904.28;;;19.90;52.90;;;;;;5052918;28;20193;-49
2021/04/18 09:04:40;;;;;;;1048.85;935.00;;;20.00;52.70;;;;;;5065368;28;20177;-49
2021/04/18 09:07:07;;;;;;;1057.15;942.78;;;19.70;52.00;;;;;;5070448;28;20673;-51
2021/04/18 09:09:34;;;;;;;1057.45;953.83;;;19.50;51.20;;;;;;5053810;28;20179;-51
2021/04/18 09:12:00;;;;;;;1065.40;969.58;;;20.40;51.20;;;;;;5052325;28;20205;-51
2021/04/18 09:14:31;;;;;;;1027.88;940.20;;;20.90;51.30;;;;;;5051910;28;20690;-52
2021/04/18 09:17:17;;;;;;;988.95;906.33;;;21.00;51.00;;;;;;5069986;28;20169;-52
2021/04/18 09:19:57;;;;;;;965.63;884.55;;;21.20;50.60;;;;;;5069815;28;20177;-52
2021/04/18 09:22:24;;;;;;;945.92;865.92;;;21.30;49.10;;;;;;5052072;28;20173;-50
2021/04/18 09:24:58;;;;;;;850.47;777.65;;;21.60;49.30;;;;;;5060864;28;20183;-48
2021/04/18 09:27:30;;;;;;;784.33;716.38;;;21.90;48.70;;;;;;5067995;28;20280;-48
2021/04/18 09:30:01;;;;;;;667.05;607.28;;;21.90;49.30;;;;;;5061179;28;20170;-51
2021/04/18 09:32:28;;;;;;;704.90;642.13;;;22.40;47.00;;;;;;5057373;28;20222;-50
2021/04/18 09:34:54;;;;;;;670.40;609.50;;;22.50;47.60;;;;;;5052301;28;20179;-50
2021/04/18 09:37:22;;;;;;;768.92;701.33;;;22.60;49.00;;;;;;5062801;28;20674;-52
2021/04/18 09:39:54;;;;;;;683.13;621.63;;;22.40;47.90;;;;;;5060273;28;20174;-48
2021/04/18 09:42:21;;;;;;;721.00;656.67;;;22.30;48.90;;;;;;5054341;28;20538;-51
2021/04/18 09:44:49;;;;;;;612.13;556.33;;;22.60;46.70;;;;;;5070560;28;20178;-51
2021/04/18 09:47:23;;;;;;;433.35;393.80;;;22.60;47.20;;;;;;5066915;28;20178;-50
2021/04/18 09:50:02;;;;;;;420.65;382.48;;;22.80;45.80;;;;;;5054483;28;20215;-53
2021/04/18 09:52:30;;;;;;;448.73;407.98;;;22.80;45.20;;;;;;5056636;28;20201;-49
2021/04/18 09:55:26;;;;;;;433.15;393.88;;;22.40;45.40;;;;;;5061805;28;20179;-52
2021/04/18 09:57:56;;;;;;;444.45;404.20;;;23.30;46.20;;;;;;5062055;28;20185;-50
2021/04/18 10:00:22;;;;;;;519.80;472.80;;;22.50;43.90;;;;;;5059688;28;20600;-52
2021/04/18 10:03:04;;;;;;;387.00;352.02;;;22.50;47.10;;;;;;5073441;28;20188;-50
2021/04/18 10:05:33;;;;;;;453.48;411.70;;;23.00;46.70;;;;;;5073232;28;20193;-54
2021/04/18 10:08:18;;;;;;;370.33;336.20;;;23.30;45.60;;;;;;5061312;28;20533;-49
2021/04/18 10:10:50;;;;;;;357.70;324.75;;;24.40;43.60;;;;;;5071885;28;20220;-49
2021/04/18 10:13:34;;;;;;;299.77;272.55;;;24.70;43.10;;;;;;5064882;28;20186;-55
2021/04/18 10:16:01;;;;;;;527.30;476.58;;;24.30;42.90;;;;;;5060437;28;20221;-50
2021/04/18 10:18:27;;;;;;;786.45;714.53;;;24.30;42.00;;;;;;5074680;28;20520;-49
2021/04/18 10:21:13;;;;;;;773.13;702.28;;;24.30;43.00;;;;;;5067285;28;20635;-50
2021/04/18 10:23:39;;;;;;;666.97;604.08;;;24.90;44.30;;;;;;5039140;28;20643;-48
2021/04/18 10:26:05;;;;;;;618.65;559.70;;;24.60;43.00;;;;;;5070592;28;20178;-52
2021/04/18 10:28:31;;;;;;;558.42;503.75;;;24.50;42.90;;;;;;5066076;28;20263;-50
2021/04/18 10:30:58;;;;;;;492.42;444.25;;;26.00;43.90;;;;;;5059704;28;20556;-52
2021/04/18 10:33:24;;;;;;;439.63;396.45;;;24.80;41.90;;;;;;5070506;28;20563;-52
2021/04/18 10:35:56;;;;;;;471.77;425.75;;;25.50;41.20;;;;;;5065510;28;20638;-51
2021/04/18 10:38:23;;;;;;;444.30;401.48;;;24.60;42.30;;;;;;5058439;28;20622;-50
2021/04/18 10:40:49;;;;;;;401.20;362.90;;;24.10;41.50;;;;;;5063718;28;20169;-51
2021/04/18 10:43:15;;;;;;;387.55;350.60;;;25.40;41.60;;;;;;5069298;28;20174;-50
2021/04/18 10:45:42;;;;;;;333.52;302.08;;;25.20;40.90;;;;;;5062597;28;20169;-52
2021/04/18 10:48:08;;;;;;;291.42;264.60;;;25.30;41.40;;;;;;5070148;28;20665;-50
2021/04/18 10:50:34;;;;;;;342.42;310.38;;;25.20;39.00;;;;;;5074600;28;20174;-52
2021/04/18 10:53:01;;;;;;;270.48;243.52;;;26.10;40.10;;;;;;5073361;28;20649;-51
2021/04/18 10:55:27;;;;;;;248.75;225.82;;;26.30;42.70;;;;;;5073406;28;20559;-51
2021/04/18 10:57:53;;;;;;;249.77;227.10;;;26.70;42.00;;;;;;5074513;28;20248;-51
2021/04/18 11:00:20;;;;;;;276.67;251.70;;;26.90;40.00;;;;;;5074727;28;20174;-48
2021/04/18 11:02:46;;;;;;;253.55;228.60;;;27.30;40.40;;;;;;5066503;28;20190;-51
2021/04/18 11:05:12;;;;;;;307.27;277.30;;;26.90;40.00;;;;;;5068529;28;20179;-49
2021/04/18 11:07:38;;;;;;;267.65;241.93;;;26.40;39.20;;;;;;5059126;28;20203;-49
2021/04/18 11:10:05;;;;;;;295.92;267.08;;;26.70;39.20;;;;;;5063176;28;20186;-49
2021/04/18 11:12:32;;;;;;;211.27;191.90;;;25.80;39.40;;;;;;5065341;28;20221;-49
2021/04/18 11:14:58;;;;;;;289.25;261.80;;;26.60;41.20;;;;;;5059990;28;20178;-47
2021/04/18 11:17:24;;;;;;;218.60;199.07;;;26.30;38.90;;;;;;5061444;28;20174;-48
2021/04/18 11:19:52;;;;;;;283.48;257.27;;;26.20;38.40;;;;;;5073415;28;20549;-49
2021/04/18 11:22:18;;;;;;;707.05;642.55;;;26.80;38.40;;;;;;5060746;28;20179;-50
2021/04/18 11:24:45;;;;;;;774.70;703.83;;;26.00;38.40;;;;;;5066474;28;20537;-47
2021/04/18 11:27:11;;;;;;;863.40;786.22;;;27.20;39.60;;;;;;5070884;28;20178;-48
2021/04/18 11:29:42;;;;;;;973.42;887.88;;;27.00;37.00;;;;;;5062173;28;20186;-49
2021/04/18 11:32:09;;;;;;;906.55;825.45;;;25.80;37.90;;;;;;5066087;28;20232;-47
2021/04/18 11:34:35;;;;;;;879.83;801.58;;;26.30;39.30;;;;;;5066540;28;20182;-47
2021/04/18 11:37:02;;;;;;;910.88;828.58;;;25.80;39.60;;;;;;5053873;28;20183;-49
2021/04/18 11:39:28;;;;;;;1000.55;912.17;;;26.40;38.10;;;;;;5057575;28;20174;-49
2021/04/18 11:41:55;;;;;;;918.92;836.28;;;27.40;36.80;;;;;;5059977;28;20178;-48
2021/04/18 11:44:21;;;;;;;980.65;893.60;;;27.70;38.30;;;;;;5065806;28;20519;-48
2021/04/18 11:46:47;;;;;;;787.50;715.20;;;27.30;36.40;;;;;;5067744;28;20646;-48
2021/04/18 11:49:14;;;;;;;926.20;843.58;;;27.40;37.80;;;;;;5071062;28;20564;-51
2021/04/18 11:51:41;;;;;;;924.70;841.60;;;27.20;37.60;;;;;;5071879;28;20188;-47
2021/04/18 11:54:08;;;;;;;911.33;829.40;;;28.00;37.80;;;;;;5072780;28;20571;-50
2021/04/18 11:56:35;;;;;;;901.70;820.83;;;28.00;34.70;;;;;;5071889;28;20253;-52
2021/04/18 11:59:01;;;;;;;830.90;756.60;;;27.80;36.30;;;;;;5060682;28;20179;-48
2021/04/18 12:01:27;;;;;;;1027.25;937.72;;;27.20;36.00;;;;;;5064034;28;20178;-49
2021/04/18 12:03:54;;;;;;;1054.95;964.22;;;26.40;35.40;;;;;;5065577;28;20186;-49
2021/04/18 12:06:20;;;;;;;1049.72;958.92;;;25.70;36.60;;;;;;5053509;28;20191;-48
2021/04/18 12:08:46;;;;;;;1037.80;948.63;;;26.00;36.20;;;;;;5055023;28;20510;-52
2021/04/18 12:11:12;;;;;;;1044.55;954.92;;;26.30;35.80;;;;;;5067324;28;20188;-48
2021/04/18 12:13:38;;;;;;;1085.35;992.20;;;25.40;35.50;;;;;;5071781;28;20210;-49
2021/04/18 12:16:05;;;;;;;1032.13;943.17;;;25.30;36.60;;;;;;5063127;28;20538;-48
2021/04/18 12:18:31;;;;;;;1070.18;977.80;;;24.80;36.70;;;;;;5061888;28;20655;-48
2021/04/18 12:20:57;;;;;;;1059.00;967.70;;;24.30;37.30;;;;;;5061198;28;20190;-47
2021/04/18 12:23:23;;;;;;;1002.83;917.20;;;25.10;37.00;;;;;;5053224;28;20535;-47
2021/04/18 12:25:49;;;;;;;1002.30;917.53;;;25.50;37.90;;;;;;5055139;28;20619;-48
2021/04/18 12:28:16;;;;;;;965.10;883.88;;;24.70;35.50;;;;;;5062728;28;20191;-50
2021/04/18 12:30:42;;;;;;;925.90;848.85;;;24.80;37.60;;;;;;5052070;28;20175;-49
2021/04/18 12:33:08;;;;;;;966.42;885.50;;;24.60;36.90;;;;;;5054597;28;20230;-47
2021/04/18 12:35:34;;;;;;;939.78;859.42;;;25.10;36.30;;;;;;5051912;28;20175;-48
2021/04/18 12:38:00;;;;;;;968.13;885.20;;;25.10;36.50;;;;;;5062672;28;20663;-47
2021/04/18 12:40:26;;;;;;;965.13;884.28;;;25.70;35.70;;;;;;5056251;28;20190;-49
2021/04/18 12:42:52;;;;;;;937.40;857.75;;;25.00;36.50;;;;;;5067930;28;20193;-48